sensor_id;sensor_type;location;lat;lon;timestamp;P1;durP1;ratioP1;P2;durP2;ratioP2
79410;SDS011;69635;50.964;6.948;2024-02-21T03:03:49;7.80;;;3.10;;
79410;SDS011;69635;50.964;6.948;2024-02-21T03:06:14;8.77;;;3.07;;
79410;SDS011;69635;50.964;6.948;2024-02-21T03:08:39;7.40;;;2.63;;
79410;SDS011;69635;50.964;6.948;2024-02-21T03:11:05;5.23;;;2.40;;
79410;SDS011;69635;50.964;6.948;2024-02-21T03:13:30;9.07;;;3.13;;
79410;SDS011;69635;50.964;6.948;2024-02-21T03:15:55;6.97;;;2.70;;
79410;SDS011;69635;50.964;6.948;2024-02-21T03:18:21;10.17;;;3.00;;
79410;SDS011;69635;50.964;6.948;2024-02-21T03:20:46;9.40;;;2.87;;
79410;SDS011;69635;50.964;6.948;2024-02-21T03:23:11;6.23;;;2.53;;
79410;SDS011;69635;50.964;6.948;2024-02-21T03:25:36;8.30;;;2.40;;
79410;SDS011;69635;50.964;6.948;2024-02-21T03:28:01;8.17;;;3.10;;
79410;SDS011;69635;50.964;6.948;2024-02-21T03:30:27;11.47;;;2.53;;
79410;SDS011;69635;50.964;6.948;2024-02-21T03:32:52;7.47;;;2.30;;
79410;SDS011;69635;50.964;6.948;2024-02-21T03:35:17;6.07;;;2.73;;
79410;SDS011;69635;50.964;6.948;2024-02-21T03:37:44;11.30;;;2.80;;
79410;SDS011;69635;50.964;6.948;2024-02-21T03:40:10;13.43;;;3.13;;
79410;SDS011;69635;50.964;6.948;2024-02-21T03:42:35;6.40;;;2.60;;
79410;SDS011;69635;50.964;6.948;2024-02-21T03:45:01;6.55;;;2.60;;
79410;SDS011;69635;50.964;6.948;2024-02-21T03:47:26;8.83;;;2.73;;
79410;SDS011;69635;50.964;6.948;2024-02-21T03:49:51;6.63;;;2.33;;
79410;SDS011;69635;50.964;6.948;2024-02-21T03:52:16;10.13;;;3.23;;
79410;SDS011;69635;50.964;6.948;2024-02-21T03:54:42;10.40;;;2.42;;
79410;SDS011;69635;50.964;6.948;2024-02-21T03:57:07;5.73;;;2.40;;
79410;SDS011;69635;50.964;6.948;2024-02-21T03:59:32;10.88;;;2.90;;
79410;SDS011;69635;50.964;6.948;2024-02-21T04:01:57;6.18;;;2.63;;
79410;SDS011;69635;50.964;6.948;2024-02-21T04:04:23;9.23;;;2.83;;
79410;SDS011;69635;50.964;6.948;2024-02-21T04:06:49;8.73;;;2.50;;
79410;SDS011;69635;50.964;6.948;2024-02-21T04:09:14;11.63;;;3.35;;
79410;SDS011;69635;50.964;6.948;2024-02-21T04:11:40;8.48;;;3.45;;
79410;SDS011;69635;50.964;6.948;2024-02-21T04:14:05;6.03;;;2.87;;
79410;SDS011;69635;50.964;6.948;2024-02-21T04:16:30;12.97;;;2.80;;
79410;SDS011;69635;50.964;6.948;2024-02-21T04:18:56;7.17;;;2.47;;
79410;SDS011;69635;50.964;6.948;2024-02-21T04:21:21;6.80;;;2.20;;
79410;SDS011;69635;50.964;6.948;2024-02-21T04:23:46;9.90;;;2.30;;
79410;SDS011;69635;50.964;6.948;2024-02-21T04:26:11;6.23;;;2.30;;
79410;SDS011;69635;50.964;6.948;2024-02-21T04:28:36;9.83;;;2.50;;
79410;SDS011;69635;50.964;6.948;2024-02-21T04:31:02;7.85;;;3.08;;
79410;SDS011;69635;50.964;6.948;2024-02-21T04:33:27;6.93;;;2.80;;
79410;SDS011;69635;50.964;6.948;2024-02-21T04:35:52;7.63;;;2.70;;
79410;SDS011;69635;50.964;6.948;2024-02-21T04:38:19;6.32;;;2.85;;
79410;SDS011;69635;50.964;6.948;2024-02-21T04:40:45;7.23;;;2.63;;
79410;SDS011;69635;50.964;6.948;2024-02-21T04:43:10;7.00;;;3.20;;
79410;SDS011;69635;50.964;6.948;2024-02-21T04:45:35;12.03;;;2.80;;
79410;SDS011;69635;50.964;6.948;2024-02-21T04:48:01;6.68;;;2.72;;
79410;SDS011;69635;50.964;6.948;2024-02-21T04:50:26;9.80;;;2.80;;
79410;SDS011;69635;50.964;6.948;2024-02-21T04:52:52;11.32;;;3.60;;
79410;SDS011;69635;50.964;6.948;2024-02-21T04:55:17;9.47;;;2.90;;
79410;SDS011;69635;50.964;6.948;2024-02-21T04:57:42;10.18;;;3.20;;
79410;SDS011;69635;50.964;6.948;2024-02-21T05:00:08;5.33;;;2.47;;
79410;SDS011;69635;50.964;6.948;2024-02-21T05:02:34;9.40;;;3.30;;
79410;SDS011;69635;50.964;6.948;2024-02-21T05:04:59;7.83;;;2.77;;
79410;SDS011;69635;50.964;6.948;2024-02-21T05:07:24;7.97;;;2.73;;
79410;SDS011;69635;50.964;6.948;2024-02-21T05:09:50;5.28;;;2.70;;
79410;SDS011;69635;50.964;6.948;2024-02-21T05:12:16;8.05;;;3.10;;
79410;SDS011;69635;50.964;6.948;2024-02-21T05:14:41;8.37;;;2.73;;
79410;SDS011;69635;50.964;6.948;2024-02-21T05:17:06;11.73;;;3.17;;
79410;SDS011;69635;50.964;6.948;2024-02-21T05:19:31;6.45;;;2.72;;
79410;SDS011;69635;50.964;6.948;2024-02-21T05:21:57;9.37;;;3.00;;
79410;SDS011;69635;50.964;6.948;2024-02-21T05:24:22;6.90;;;2.30;;
79410;SDS011;69635;50.964;6.948;2024-02-21T05:26:47;10.67;;;2.93;;
79410;SDS011;69635;50.964;6.948;2024-02-21T05:29:14;7.43;;;2.83;;
79410;SDS011;69635;50.964;6.948;2024-02-21T05:31:43;12.90;;;2.70;;
79410;SDS011;69635;50.964;6.948;2024-02-21T05:34:19;9.90;;;2.70;;
79410;SDS011;69635;50.964;6.948;2024-02-21T05:36:45;8.07;;;2.88;;
79410;SDS011;69635;50.964;6.948;2024-02-21T05:39:10;7.03;;;2.13;;
79410;SDS011;69635;50.964;6.948;2024-02-21T05:41:36;5.43;;;2.10;;
79410;SDS011;69635;50.964;6.948;2024-02-21T05:44:01;5.53;;;2.43;;
79410;SDS011;69635;50.964;6.948;2024-02-21T05:46:26;6.13;;;1.90;;
79410;SDS011;69635;50.964;6.948;2024-02-21T05:48:51;7.65;;;2.13;;
79410;SDS011;69635;50.964;6.948;2024-02-21T05:51:17;9.57;;;2.50;;
79410;SDS011;69635;50.964;6.948;2024-02-21T05:53:42;5.03;;;2.27;;
79410;SDS011;69635;50.964;6.948;2024-02-21T05:56:10;6.53;;;2.17;;
79410;SDS011;69635;50.964;6.948;2024-02-21T05:58:36;3.50;;;1.92;;
79410;SDS011;69635;50.964;6.948;2024-02-21T06:01:02;5.88;;;2.58;;
79410;SDS011;69635;50.964;6.948;2024-02-21T06:03:28;3.90;;;2.45;;
79410;SDS011;69635;50.964;6.948;2024-02-21T06:05:53;6.53;;;2.65;;
79410;SDS011;69635;50.964;6.948;2024-02-21T06:08:19;4.10;;;1.67;;
79410;SDS011;69635;50.964;6.948;2024-02-21T06:10:45;8.85;;;2.22;;
79410;SDS011;69635;50.964;6.948;2024-02-21T06:13:10;9.00;;;2.17;;
79410;SDS011;69635;50.964;6.948;2024-02-21T06:15:35;7.40;;;2.20;;
79410;SDS011;69635;50.964;6.948;2024-02-21T06:18:01;8.77;;;2.07;;
79410;SDS011;69635;50.964;6.948;2024-02-21T06:20:26;6.67;;;2.37;;
79410;SDS011;69635;50.964;6.948;2024-02-21T06:22:51;8.63;;;2.50;;
79410;SDS011;69635;50.964;6.948;2024-02-21T06:25:16;6.15;;;2.30;;
79410;SDS011;69635;50.964;6.948;2024-02-21T06:27:42;11.05;;;3.03;;
79410;SDS011;69635;50.964;6.948;2024-02-21T06:30:07;11.90;;;2.50;;
79410;SDS011;69635;50.964;6.948;2024-02-21T06:32:32;5.38;;;2.80;;
79410;SDS011;69635;50.964;6.948;2024-02-21T06:34:58;8.07;;;2.57;;
79410;SDS011;69635;50.964;6.948;2024-02-21T06:37:23;6.00;;;1.95;;
79410;SDS011;69635;50.964;6.948;2024-02-21T06:39:49;6.13;;;2.40;;
79410;SDS011;69635;50.964;6.948;2024-02-21T06:42:16;11.00;;;3.30;;
79410;SDS011;69635;50.964;6.948;2024-02-21T06:44:41;9.48;;;2.53;;
79410;SDS011;69635;50.964;6.948;2024-02-21T06:47:06;8.68;;;2.97;;
79410;SDS011;69635;50.964;6.948;2024-02-21T06:49:33;11.10;;;2.50;;
79410;SDS011;69635;50.964;6.948;2024-02-21T06:51:59;7.15;;;2.47;;
79410;SDS011;69635;50.964;6.948;2024-02-21T06:54:24;5.80;;;2.97;;
79410;SDS011;69635;50.964;6.948;2024-02-21T06:56:49;9.63;;;2.90;;
79410;SDS011;69635;50.964;6.948;2024-02-21T06:59:14;6.97;;;2.83;;
79410;SDS011;69635;50.964;6.948;2024-02-21T07:01:44;9.18;;;2.92;;
79410;SDS011;69635;50.964;6.948;2024-02-21T07:04:09;8.48;;;2.50;;
79410;SDS011;69635;50.964;6.948;2024-02-21T07:06:35;5.70;;;2.33;;
79410;SDS011;69635;50.964;6.948;2024-02-21T07:09:00;8.83;;;2.47;;
79410;SDS011;69635;50.964;6.948;2024-02-21T07:11:25;9.73;;;2.67;;
79410;SDS011;69635;50.964;6.948;2024-02-21T07:13:52;7.13;;;2.40;;
79410;SDS011;69635;50.964;6.948;2024-02-21T07:16:17;5.72;;;2.70;;
79410;SDS011;69635;50.964;6.948;2024-02-21T07:18:43;10.13;;;3.83;;
79410;SDS011;69635;50.964;6.948;2024-02-21T07:21:08;10.87;;;2.83;;
79410;SDS011;69635;50.964;6.948;2024-02-21T07:23:33;5.88;;;2.00;;
79410;SDS011;69635;50.964;6.948;2024-02-21T07:25:59;10.68;;;2.67;;
79410;SDS011;69635;50.964;6.948;2024-02-21T07:28:24;8.65;;;2.80;;
79410;SDS011;69635;50.964;6.948;2024-02-21T07:30:49;6.22;;;2.65;;
79410;SDS011;69635;50.964;6.948;2024-02-21T07:33:14;4.03;;;2.13;;
79410;SDS011;69635;50.964;6.948;2024-02-21T07:35:40;6.57;;;2.30;;
79410;SDS011;69635;50.964;6.948;2024-02-21T07:38:07;6.22;;;2.10;;
79410;SDS011;69635;50.964;6.948;2024-02-21T07:40:33;6.22;;;2.10;;
79410;SDS011;69635;50.964;6.948;2024-02-21T07:42:58;4.30;;;2.17;;
79410;SDS011;69635;50.964;6.948;2024-02-21T07:45:24;6.87;;;2.20;;
79410;SDS011;69635;50.964;6.948;2024-02-21T07:47:49;5.55;;;2.05;;
79410;SDS011;69635;50.964;6.948;2024-02-21T07:50:15;5.75;;;2.38;;
79410;SDS011;69635;50.964;6.948;2024-02-21T07:52:40;7.97;;;2.40;;
79410;SDS011;69635;50.964;6.948;2024-02-21T07:55:05;2.90;;;1.80;;
79410;SDS011;69635;50.964;6.948;2024-02-21T07:57:30;4.32;;;1.63;;
79410;SDS011;69635;50.964;6.948;2024-02-21T07:59:56;6.38;;;2.10;;
79410;SDS011;69635;50.964;6.948;2024-02-21T08:02:21;6.30;;;2.00;;
79410;SDS011;69635;50.964;6.948;2024-02-21T08:04:46;6.73;;;2.00;;
79410;SDS011;69635;50.964;6.948;2024-02-21T08:07:11;6.25;;;1.95;;
79410;SDS011;69635;50.964;6.948;2024-02-21T08:09:39;7.87;;;2.57;;
79410;SDS011;69635;50.964;6.948;2024-02-21T08:12:04;5.47;;;2.00;;
79410;SDS011;69635;50.964;6.948;2024-02-21T08:14:30;6.95;;;1.85;;
79410;SDS011;69635;50.964;6.948;2024-02-21T08:16:55;7.50;;;2.77;;
79410;SDS011;69635;50.964;6.948;2024-02-21T08:19:21;7.30;;;2.10;;
79410;SDS011;69635;50.964;6.948;2024-02-21T08:21:47;8.85;;;2.67;;
79410;SDS011;69635;50.964;6.948;2024-02-21T08:24:13;10.45;;;2.35;;
79410;SDS011;69635;50.964;6.948;2024-02-21T08:26:41;7.28;;;2.10;;
79410;SDS011;69635;50.964;6.948;2024-02-21T08:29:07;6.20;;;1.95;;
79410;SDS011;69635;50.964;6.948;2024-02-21T08:31:32;6.63;;;1.90;;
79410;SDS011;69635;50.964;6.948;2024-02-21T08:33:57;3.07;;;1.60;;
79410;SDS011;69635;50.964;6.948;2024-02-21T08:36:34;8.73;;;2.22;;
79410;SDS011;69635;50.964;6.948;2024-02-21T08:39:00;4.85;;;2.25;;
79410;SDS011;69635;50.964;6.948;2024-02-21T08:41:26;8.43;;;2.05;;
79410;SDS011;69635;50.964;6.948;2024-02-21T08:43:51;5.68;;;1.65;;
79410;SDS011;69635;50.964;6.948;2024-02-21T08:46:17;7.75;;;2.13;;
79410;SDS011;69635;50.964;6.948;2024-02-21T08:48:43;9.68;;;1.85;;
79410;SDS011;69635;50.964;6.948;2024-02-21T08:51:11;4.90;;;1.92;;
79410;SDS011;69635;50.964;6.948;2024-02-21T08:53:37;7.18;;;2.08;;
79410;SDS011;69635;50.964;6.948;2024-02-21T08:56:03;7.10;;;2.67;;
79410;SDS011;69635;50.964;6.948;2024-02-21T08:58:28;4.55;;;2.15;;
79410;SDS011;69635;50.964;6.948;2024-02-21T09:00:54;5.80;;;1.98;;
79410;SDS011;69635;50.964;6.948;2024-02-21T09:03:19;8.85;;;2.08;;
79410;SDS011;69635;50.964;6.948;2024-02-21T09:05:45;9.20;;;1.77;;
79410;SDS011;69635;50.964;6.948;2024-02-21T09:08:11;5.18;;;1.40;;
79410;SDS011;69635;50.964;6.948;2024-02-21T09:10:36;5.17;;;2.00;;
79410;SDS011;69635;50.964;6.948;2024-02-21T09:13:01;4.43;;;2.07;;
79410;SDS011;69635;50.964;6.948;2024-02-21T09:15:28;7.38;;;1.60;;
79410;SDS011;69635;50.964;6.948;2024-02-21T09:17:53;4.43;;;1.63;;
79410;SDS011;69635;50.964;6.948;2024-02-21T09:20:19;5.50;;;1.88;;
79410;SDS011;69635;50.964;6.948;2024-02-21T09:22:44;2.63;;;1.83;;
79410;SDS011;69635;50.964;6.948;2024-02-21T09:25:09;5.20;;;1.77;;
79410;SDS011;69635;50.964;6.948;2024-02-21T09:27:37;7.45;;;2.15;;
79410;SDS011;69635;50.964;6.948;2024-02-21T09:30:02;5.38;;;2.08;;
79410;SDS011;69635;50.964;6.948;2024-02-21T09:32:29;6.05;;;1.70;;
79410;SDS011;69635;50.964;6.948;2024-02-21T09:34:54;4.93;;;2.10;;
79410;SDS011;69635;50.964;6.948;2024-02-21T09:37:20;6.80;;;1.97;;
79410;SDS011;69635;50.964;6.948;2024-02-21T09:39:45;6.37;;;1.77;;
79410;SDS011;69635;50.964;6.948;2024-02-21T09:42:12;7.28;;;1.77;;
79410;SDS011;69635;50.964;6.948;2024-02-21T09:44:39;4.45;;;1.13;;
79410;SDS011;69635;50.964;6.948;2024-02-21T09:47:12;4.75;;;1.42;;
79410;SDS011;69635;50.964;6.948;2024-02-21T09:49:41;5.00;;;2.40;;
79410;SDS011;69635;50.964;6.948;2024-02-21T09:52:07;5.32;;;1.77;;
79410;SDS011;69635;50.964;6.948;2024-02-21T09:54:35;4.85;;;1.92;;
79410;SDS011;69635;50.964;6.948;2024-02-21T09:57:06;5.50;;;1.52;;
79410;SDS011;69635;50.964;6.948;2024-02-21T09:59:32;5.63;;;1.58;;
79410;SDS011;69635;50.964;6.948;2024-02-21T10:01:57;5.70;;;1.35;;
79410;SDS011;69635;50.964;6.948;2024-02-21T10:04:25;7.82;;;2.08;;
79410;SDS011;69635;50.964;6.948;2024-02-21T10:06:50;6.30;;;1.60;;
79410;SDS011;69635;50.964;6.948;2024-02-21T10:09:28;4.93;;;1.73;;
79410;SDS011;69635;50.964;6.948;2024-02-21T10:11:53;6.15;;;1.45;;
79410;SDS011;69635;50.964;6.948;2024-02-21T10:14:20;4.30;;;1.65;;
79410;SDS011;69635;50.964;6.948;2024-02-21T10:16:47;5.70;;;1.85;;
79410;SDS011;69635;50.964;6.948;2024-02-21T10:19:19;4.78;;;1.67;;
79410;SDS011;69635;50.964;6.948;2024-02-21T10:21:45;3.97;;;1.50;;
79410;SDS011;69635;50.964;6.948;2024-02-21T10:24:11;6.55;;;1.83;;
79410;SDS011;69635;50.964;6.948;2024-02-21T10:26:37;4.22;;;1.50;;
79410;SDS011;69635;50.964;6.948;2024-02-21T10:29:02;5.82;;;2.00;;
79410;SDS011;69635;50.964;6.948;2024-02-21T10:31:28;6.33;;;1.80;;
79410;SDS011;69635;50.964;6.948;2024-02-21T10:33:54;7.18;;;2.25;;
79410;SDS011;69635;50.964;6.948;2024-02-21T10:36:19;4.40;;;1.85;;
79410;SDS011;69635;50.964;6.948;2024-02-21T10:38:44;5.53;;;1.87;;
79410;SDS011;69635;50.964;6.948;2024-02-21T10:41:10;4.43;;;1.93;;
79410;SDS011;69635;50.964;6.948;2024-02-21T10:43:39;6.07;;;1.83;;
79410;SDS011;69635;50.964;6.948;2024-02-21T10:46:07;4.75;;;1.77;;
79410;SDS011;69635;50.964;6.948;2024-02-21T10:48:46;6.40;;;1.58;;
79410;SDS011;69635;50.964;6.948;2024-02-21T10:53:44;6.68;;;1.40;;
79410;SDS011;69635;50.964;6.948;2024-02-21T10:56:28;4.80;;;2.03;;
79410;SDS011;69635;50.964;6.948;2024-02-21T10:58:54;4.70;;;1.77;;
79410;SDS011;69635;50.964;6.948;2024-02-21T11:01:22;6.57;;;1.42;;
79410;SDS011;69635;50.964;6.948;2024-02-21T11:03:48;4.95;;;2.28;;
79410;SDS011;69635;50.964;6.948;2024-02-21T11:06:14;6.72;;;1.70;;
79410;SDS011;69635;50.964;6.948;2024-02-21T11:08:40;4.47;;;1.65;;
79410;SDS011;69635;50.964;6.948;2024-02-21T11:11:05;4.33;;;1.43;;
79410;SDS011;69635;50.964;6.948;2024-02-21T11:13:36;5.40;;;1.93;;
79410;SDS011;69635;50.964;6.948;2024-02-21T11:16:06;3.80;;;2.13;;
79410;SDS011;69635;50.964;6.948;2024-02-21T11:18:31;3.72;;;1.55;;
79410;SDS011;69635;50.964;6.948;2024-02-21T11:20:56;4.63;;;1.27;;
79410;SDS011;69635;50.964;6.948;2024-02-21T11:23:27;5.17;;;1.80;;
79410;SDS011;69635;50.964;6.948;2024-02-21T11:26:03;6.88;;;1.63;;
79410;SDS011;69635;50.964;6.948;2024-02-21T11:28:28;3.33;;;1.17;;
79410;SDS011;69635;50.964;6.948;2024-02-21T11:30:53;3.80;;;1.50;;
79410;SDS011;69635;50.964;6.948;2024-02-21T11:33:29;4.10;;;1.35;;
79410;SDS011;69635;50.964;6.948;2024-02-21T11:35:54;3.63;;;1.43;;
79410;SDS011;69635;50.964;6.948;2024-02-21T11:38:19;4.20;;;2.00;;
79410;SDS011;69635;50.964;6.948;2024-02-21T11:40:47;4.80;;;1.48;;
79410;SDS011;69635;50.964;6.948;2024-02-21T11:43:13;5.33;;;1.40;;
79410;SDS011;69635;50.964;6.948;2024-02-21T11:45:38;4.75;;;1.30;;
79410;SDS011;69635;50.964;6.948;2024-02-21T11:48:07;4.88;;;1.38;;
79410;SDS011;69635;50.964;6.948;2024-02-21T11:50:34;2.53;;;1.23;;
79410;SDS011;69635;50.964;6.948;2024-02-21T11:52:59;4.88;;;1.85;;
79410;SDS011;69635;50.964;6.948;2024-02-21T11:55:24;4.80;;;1.30;;
79410;SDS011;69635;50.964;6.948;2024-02-21T11:57:50;6.40;;;1.63;;
79410;SDS011;69635;50.964;6.948;2024-02-21T12:00:16;2.72;;;1.23;;
79410;SDS011;69635;50.964;6.948;2024-02-21T12:02:42;7.72;;;1.58;;
79410;SDS011;69635;50.964;6.948;2024-02-21T12:05:07;3.70;;;1.50;;
79410;SDS011;69635;50.964;6.948;2024-02-21T12:07:33;2.40;;;1.23;;
79410;SDS011;69635;50.964;6.948;2024-02-21T12:09:59;3.13;;;1.20;;
79410;SDS011;69635;50.964;6.948;2024-02-21T12:12:24;4.50;;;2.70;;
79410;SDS011;69635;50.964;6.948;2024-02-21T12:14:54;4.47;;;1.47;;
79410;SDS011;69635;50.964;6.948;2024-02-21T12:17:20;7.10;;;1.95;;
79410;SDS011;69635;50.964;6.948;2024-02-21T12:19:46;4.38;;;1.92;;
79410;SDS011;69635;50.964;6.948;2024-02-21T12:22:16;2.63;;;1.58;;
79410;SDS011;69635;50.964;6.948;2024-02-21T12:24:41;4.70;;;1.48;;
79410;SDS011;69635;50.964;6.948;2024-02-21T12:27:12;3.40;;;1.55;;
79410;SDS011;69635;50.964;6.948;2024-02-21T12:29:37;6.60;;;1.60;;
79410;SDS011;69635;50.964;6.948;2024-02-21T12:32:03;4.68;;;1.50;;
79410;SDS011;69635;50.964;6.948;2024-02-21T12:34:29;7.18;;;1.55;;
79410;SDS011;69635;50.964;6.948;2024-02-21T12:36:57;6.60;;;1.65;;
79410;SDS011;69635;50.964;6.948;2024-02-21T12:39:23;3.88;;;1.45;;
79410;SDS011;69635;50.964;6.948;2024-02-21T12:41:48;6.67;;;1.60;;
79410;SDS011;69635;50.964;6.948;2024-02-21T12:44:14;4.77;;;1.30;;
79410;SDS011;69635;50.964;6.948;2024-02-21T12:46:39;3.58;;;1.33;;
79410;SDS011;69635;50.964;6.948;2024-02-21T12:49:05;4.97;;;1.50;;
79410;SDS011;69635;50.964;6.948;2024-02-21T12:51:33;2.73;;;1.43;;
79410;SDS011;69635;50.964;6.948;2024-02-21T12:53:58;6.63;;;1.45;;
79410;SDS011;69635;50.964;6.948;2024-02-21T12:56:24;3.08;;;1.30;;
79410;SDS011;69635;50.964;6.948;2024-02-21T12:58:52;4.15;;;1.60;;
79410;SDS011;69635;50.964;6.948;2024-02-21T13:01:17;7.30;;;2.00;;
79410;SDS011;69635;50.964;6.948;2024-02-21T13:03:42;3.77;;;1.43;;
79410;SDS011;69635;50.964;6.948;2024-02-21T13:06:07;3.97;;;2.33;;
79410;SDS011;69635;50.964;6.948;2024-02-21T13:08:38;6.00;;;2.08;;
79410;SDS011;69635;50.964;6.948;2024-02-21T13:13:30;7.43;;;1.70;;
79410;SDS011;69635;50.964;6.948;2024-02-21T13:15:55;6.40;;;1.57;;
79410;SDS011;69635;50.964;6.948;2024-02-21T13:18:20;6.38;;;1.40;;
79410;SDS011;69635;50.964;6.948;2024-02-21T13:20:45;6.67;;;1.60;;
79410;SDS011;69635;50.964;6.948;2024-02-21T13:23:11;4.70;;;1.37;;
79410;SDS011;69635;50.964;6.948;2024-02-21T13:25:36;3.73;;;1.40;;
79410;SDS011;69635;50.964;6.948;2024-02-21T13:28:01;4.40;;;1.87;;
79410;SDS011;69635;50.964;6.948;2024-02-21T13:30:28;4.63;;;1.42;;
79410;SDS011;69635;50.964;6.948;2024-02-21T13:32:53;4.50;;;1.58;;
79410;SDS011;69635;50.964;6.948;2024-02-21T13:35:19;8.52;;;1.83;;
79410;SDS011;69635;50.964;6.948;2024-02-21T13:37:45;4.47;;;1.50;;
79410;SDS011;69635;50.964;6.948;2024-02-21T13:40:11;4.53;;;1.38;;
79410;SDS011;69635;50.964;6.948;2024-02-21T13:42:36;4.33;;;1.60;;
79410;SDS011;69635;50.964;6.948;2024-02-21T13:45:02;3.45;;;1.38;;
79410;SDS011;69635;50.964;6.948;2024-02-21T13:47:28;4.13;;;1.15;;
79410;SDS011;69635;50.964;6.948;2024-02-21T13:49:53;4.88;;;1.67;;
79410;SDS011;69635;50.964;6.948;2024-02-21T13:52:18;9.47;;;1.73;;
79410;SDS011;69635;50.964;6.948;2024-02-21T13:54:47;4.57;;;1.60;;
79410;SDS011;69635;50.964;6.948;2024-02-21T13:57:14;4.35;;;1.70;;
79410;SDS011;69635;50.964;6.948;2024-02-21T13:59:39;4.50;;;1.50;;
79410;SDS011;69635;50.964;6.948;2024-02-21T14:02:05;5.50;;;1.65;;
79410;SDS011;69635;50.964;6.948;2024-02-21T14:04:33;6.35;;;1.80;;
79410;SDS011;69635;50.964;6.948;2024-02-21T14:06:58;7.03;;;1.40;;
79410;SDS011;69635;50.964;6.948;2024-02-21T14:09:24;4.15;;;1.20;;
79410;SDS011;69635;50.964;6.948;2024-02-21T14:11:49;2.97;;;1.40;;
79410;SDS011;69635;50.964;6.948;2024-02-21T14:14:14;4.82;;;1.95;;
79410;SDS011;69635;50.964;6.948;2024-02-21T14:16:40;2.45;;;1.35;;
79410;SDS011;69635;50.964;6.948;2024-02-21T14:19:06;4.32;;;1.50;;
79410;SDS011;69635;50.964;6.948;2024-02-21T14:21:33;3.67;;;1.30;;
79410;SDS011;69635;50.964;6.948;2024-02-21T14:23:58;3.17;;;1.38;;
79410;SDS011;69635;50.964;6.948;2024-02-21T14:26:27;6.13;;;1.30;;
79410;SDS011;69635;50.964;6.948;2024-02-21T14:28:52;5.80;;;1.75;;
79410;SDS011;69635;50.964;6.948;2024-02-21T14:31:17;4.90;;;1.65;;
79410;SDS011;69635;50.964;6.948;2024-02-21T14:33:43;4.82;;;1.60;;
79410;SDS011;69635;50.964;6.948;2024-02-21T14:36:08;4.80;;;1.30;;
79410;SDS011;69635;50.964;6.948;2024-02-21T14:38:35;5.97;;;1.67;;
79410;SDS011;69635;50.964;6.948;2024-02-21T14:41:00;2.50;;;1.20;;
79410;SDS011;69635;50.964;6.948;2024-02-21T14:43:27;3.78;;;1.40;;
79410;SDS011;69635;50.964;6.948;2024-02-21T14:45:53;2.90;;;1.50;;
79410;SDS011;69635;50.964;6.948;2024-02-21T14:48:22;3.03;;;1.20;;
79410;SDS011;69635;50.964;6.948;2024-02-21T14:50:47;6.40;;;1.83;;
79410;SDS011;69635;50.964;6.948;2024-02-21T14:53:12;5.57;;;1.40;;
79410;SDS011;69635;50.964;6.948;2024-02-21T14:55:38;3.22;;;1.17;;
79410;SDS011;69635;50.964;6.948;2024-02-21T14:58:05;3.23;;;1.10;;
79410;SDS011;69635;50.964;6.948;2024-02-21T15:00:30;4.95;;;1.80;;
79410;SDS011;69635;50.964;6.948;2024-02-21T15:02:57;3.67;;;1.50;;
79410;SDS011;69635;50.964;6.948;2024-02-21T15:05:22;6.45;;;1.60;;
79410;SDS011;69635;50.964;6.948;2024-02-21T15:18:09;7.32;;;1.85;;
79410;SDS011;69635;50.964;6.948;2024-02-21T15:20:34;5.93;;;1.80;;
79410;SDS011;69635;50.964;6.948;2024-02-21T15:23:02;5.05;;;1.58;;
79410;SDS011;69635;50.964;6.948;2024-02-21T15:25:29;4.82;;;1.48;;
79410;SDS011;69635;50.964;6.948;2024-02-21T15:27:55;1.65;;;0.90;;
79410;SDS011;69635;50.964;6.948;2024-02-21T15:30:21;3.28;;;1.10;;
79410;SDS011;69635;50.964;6.948;2024-02-21T15:32:48;4.65;;;1.10;;
79410;SDS011;69635;50.964;6.948;2024-02-21T15:35:13;4.00;;;1.30;;
79410;SDS011;69635;50.964;6.948;2024-02-21T15:37:39;6.22;;;1.77;;
79410;SDS011;69635;50.964;6.948;2024-02-21T15:40:06;4.20;;;1.35;;
79410;SDS011;69635;50.964;6.948;2024-02-21T15:42:34;7.35;;;2.05;;
79410;SDS011;69635;50.964;6.948;2024-02-21T15:45:01;4.28;;;1.80;;
79410;SDS011;69635;50.964;6.948;2024-02-21T15:47:29;3.88;;;2.00;;
79410;SDS011;69635;50.964;6.948;2024-02-21T15:49:55;5.88;;;1.20;;
79410;SDS011;69635;50.964;6.948;2024-02-21T15:52:20;5.45;;;1.15;;
79410;SDS011;69635;50.964;6.948;2024-02-21T15:54:46;6.20;;;1.30;;
79410;SDS011;69635;50.964;6.948;2024-02-21T15:57:11;3.35;;;0.95;;
79410;SDS011;69635;50.964;6.948;2024-02-21T15:59:37;6.32;;;1.25;;
79410;SDS011;69635;50.964;6.948;2024-02-21T16:02:05;3.92;;;1.17;;
79410;SDS011;69635;50.964;6.948;2024-02-21T16:04:30;2.70;;;1.17;;
79410;SDS011;69635;50.964;6.948;2024-02-21T16:06:59;2.45;;;1.13;;
79410;SDS011;69635;50.964;6.948;2024-02-21T16:09:25;3.05;;;1.17;;
79410;SDS011;69635;50.964;6.948;2024-02-21T16:11:53;2.88;;;1.10;;
79410;SDS011;69635;50.964;6.948;2024-02-21T16:14:21;2.60;;;1.00;;
79410;SDS011;69635;50.964;6.948;2024-02-21T16:16:47;2.38;;;0.85;;
79410;SDS011;69635;50.964;6.948;2024-02-21T16:19:13;4.13;;;1.45;;
79410;SDS011;69635;50.964;6.948;2024-02-21T16:21:39;4.43;;;1.35;;
79410;SDS011;69635;50.964;6.948;2024-02-21T16:24:04;5.30;;;1.73;;
79410;SDS011;69635;50.964;6.948;2024-02-21T16:26:33;3.22;;;0.80;;
79410;SDS011;69635;50.964;6.948;2024-02-21T16:29:01;2.97;;;1.30;;
79410;SDS011;69635;50.964;6.948;2024-02-21T16:31:28;4.80;;;1.55;;
79410;SDS011;69635;50.964;6.948;2024-02-21T16:33:53;3.13;;;1.30;;
79410;SDS011;69635;50.964;6.948;2024-02-21T16:36:22;2.70;;;1.38;;
79410;SDS011;69635;50.964;6.948;2024-02-21T16:38:51;3.80;;;1.50;;
79410;SDS011;69635;50.964;6.948;2024-02-21T16:41:17;5.05;;;1.40;;
79410;SDS011;69635;50.964;6.948;2024-02-21T16:43:45;4.90;;;1.70;;
79410;SDS011;69635;50.964;6.948;2024-02-21T16:46:11;1.30;;;1.00;;
79410;SDS011;69635;50.964;6.948;2024-02-21T16:48:36;3.70;;;2.38;;
79410;SDS011;69635;50.964;6.948;2024-02-21T16:51:02;3.05;;;1.23;;
79410;SDS011;69635;50.964;6.948;2024-02-21T16:53:29;3.15;;;1.17;;
79410;SDS011;69635;50.964;6.948;2024-02-21T16:55:54;3.78;;;1.40;;
79410;SDS011;69635;50.964;6.948;2024-02-21T16:58:20;2.95;;;1.35;;
79410;SDS011;69635;50.964;6.948;2024-02-21T17:00:49;4.70;;;1.60;;
79410;SDS011;69635;50.964;6.948;2024-02-21T17:03:14;3.58;;;1.50;;
79410;SDS011;69635;50.964;6.948;2024-02-21T17:05:47;6.15;;;1.45;;
79410;SDS011;69635;50.964;6.948;2024-02-21T17:08:12;5.85;;;1.70;;
79410;SDS011;69635;50.964;6.948;2024-02-21T17:10:38;2.70;;;1.00;;
79410;SDS011;69635;50.964;6.948;2024-02-21T17:13:06;2.90;;;1.25;;
79410;SDS011;69635;50.964;6.948;2024-02-21T17:15:32;3.25;;;1.20;;
79410;SDS011;69635;50.964;6.948;2024-02-21T17:17:57;3.75;;;1.45;;
79410;SDS011;69635;50.964;6.948;2024-02-21T17:20:23;3.33;;;1.50;;
79410;SDS011;69635;50.964;6.948;2024-02-21T17:22:49;4.22;;;1.35;;
79410;SDS011;69635;50.964;6.948;2024-02-21T17:25:14;4.23;;;1.43;;
79410;SDS011;69635;50.964;6.948;2024-02-21T17:27:40;6.30;;;1.75;;
79410;SDS011;69635;50.964;6.948;2024-02-21T17:30:06;2.25;;;1.27;;
79410;SDS011;69635;50.964;6.948;2024-02-21T17:32:33;2.90;;;1.60;;
79410;SDS011;69635;50.964;6.948;2024-02-21T17:35:01;6.15;;;1.80;;
79410;SDS011;69635;50.964;6.948;2024-02-21T17:37:31;2.47;;;1.15;;
79410;SDS011;69635;50.964;6.948;2024-02-21T17:40:00;4.93;;;1.40;;
79410;SDS011;69635;50.964;6.948;2024-02-21T17:42:28;2.17;;;1.27;;
79410;SDS011;69635;50.964;6.948;2024-02-21T17:44:54;9.33;;;2.23;;
79410;SDS011;69635;50.964;6.948;2024-02-21T17:47:19;7.07;;;2.00;;
79410;SDS011;69635;50.964;6.948;2024-02-21T17:49:44;4.40;;;2.20;;
79410;SDS011;69635;50.964;6.948;2024-02-21T17:52:11;4.03;;;1.80;;
79410;SDS011;69635;50.964;6.948;2024-02-21T17:54:38;5.93;;;1.70;;
79410;SDS011;69635;50.964;6.948;2024-02-21T17:57:07;6.07;;;2.20;;
79410;SDS011;69635;50.964;6.948;2024-02-21T17:59:38;5.70;;;1.67;;